createdAt,value
2019-03-27T00:00:17.314Z,5.3
2019-03-27T00:01:06.541Z,5.3
2019-03-27T00:01:57.174Z,5.3
2019-03-27T00:02:47.240Z,5.3
2019-03-27T00:03:37.272Z,5.4
2019-03-27T00:04:27.062Z,5.4
2019-03-27T00:05:17.381Z,5.4
2019-03-27T00:06:07.186Z,5.4
2019-03-27T00:06:57.521Z,5.4
2019-03-27T00:07:47.306Z,5.3
2019-03-27T00:08:37.929Z,5.3
2019-03-27T00:09:27.448Z,5.4
2019-03-27T00:10:17.784Z,5.3
2019-03-27T00:11:07.821Z,5.3
2019-03-27T00:11:57.864Z,5.3
2019-03-27T00:12:48.260Z,5.3
2019-03-27T00:13:38.303Z,5.3
2019-03-27T00:14:27.578Z,5.4
2019-03-27T00:15:18.408Z,5.4
2019-03-27T00:16:08.183Z,5.4
2019-03-27T00:16:58.533Z,5.4
2019-03-27T00:17:48.305Z,5.4
2019-03-27T00:18:38.639Z,5.4
2019-03-27T00:19:28.455Z,5.4
2019-03-27T00:20:18.012Z,5.4
2019-03-27T00:21:08.060Z,5.4
2019-03-27T00:21:58.877Z,5.4
2019-03-27T00:22:48.958Z,5.4
2019-03-27T00:23:38.990Z,5.4
2019-03-27T00:24:28.808Z,5.4
2019-03-27T00:25:19.123Z,5.4
2019-03-27T00:26:08.635Z,5.4
2019-03-27T00:26:59.237Z,5.4
2019-03-27T00:27:49.300Z,5.4
2019-03-27T00:28:39.398Z,5.4
2019-03-27T00:29:29.423Z,5.4
2019-03-27T00:30:19.265Z,5.4
2019-03-27T00:31:12.770Z,5.4
2019-03-27T00:31:59.322Z,5.4
2019-03-27T00:32:49.654Z,5.4
2019-03-27T00:33:39.451Z,5.4
2019-03-27T00:34:29.784Z,5.4
2019-03-27T00:35:19.029Z,5.4
2019-03-27T00:36:09.899Z,5.4
2019-03-27T00:36:59.734Z,5.4
2019-03-27T00:37:49.477Z,5.4
2019-03-27T00:38:40.092Z,5.4
2019-03-27T00:39:29.872Z,5.3
2019-03-27T00:40:19.371Z,5.4
2019-03-27T00:41:10.264Z,5.4
2019-03-27T00:42:00.101Z,5.4
2019-03-27T00:42:50.102Z,5.4
2019-03-27T00:43:40.443Z,5.4
2019-03-27T00:44:29.956Z,5.4
2019-03-27T00:45:29.765Z,5.4
2019-03-27T00:46:10.074Z,5.4
2019-03-27T00:47:00.421Z,5.4
2019-03-27T00:47:50.756Z,5.4
2019-03-27T00:48:40.548Z,5.4
2019-03-27T00:49:30.659Z,5.4
2019-03-27T00:50:20.658Z,5.4
2019-03-27T00:51:11.061Z,5.4
2019-03-27T00:52:01.066Z,5.4
2019-03-27T00:52:51.116Z,5.4
2019-03-27T00:53:40.629Z,5.4
2019-03-27T00:54:30.941Z,5.4
2019-03-27T00:55:21.295Z,5.4
2019-03-27T00:56:10.608Z,5.4
2019-03-27T00:57:01.506Z,5.4
2019-03-27T00:57:51.205Z,5.4
2019-03-27T00:58:41.008Z,5.4
2019-03-27T00:59:31.151Z,5.4
2019-03-27T01:00:21.463Z,5.4
2019-03-27T01:01:11.450Z,5.4
2019-03-27T01:02:01.263Z,5.4
2019-03-27T01:02:51.562Z,5.3
2019-03-27T01:03:41.894Z,5.3
2019-03-27T01:04:31.693Z,5.3
2019-03-27T01:05:21.738Z,5.3
2019-03-27T01:06:12.102Z,5.3
2019-03-27T01:07:02.225Z,5.3
2019-03-27T01:07:51.927Z,5.3
2019-03-27T01:08:42.260Z,5.3
2019-03-27T01:09:31.810Z,5.3
2019-03-27T01:10:22.127Z,5.3
2019-03-27T01:11:12.440Z,5.3
2019-03-27T01:12:02.542Z,5.3
2019-03-27T01:12:52.284Z,5.3
2019-03-27T01:13:42.667Z,5.3
2019-03-27T01:14:32.679Z,5.3
2019-03-27T01:15:22.204Z,5.3
2019-03-27T01:16:12.543Z,5.3
2019-03-27T01:17:02.380Z,5.3
2019-03-27T01:17:52.932Z,5.3
2019-03-27T01:18:42.437Z,5.3
2019-03-27T01:19:33.055Z,5.3
2019-03-27T01:20:22.834Z,5.3
2019-03-27T01:21:13.169Z,5.3
2019-03-27T01:22:02.691Z,5.3
2019-03-27T01:22:53.282Z,5.3
2019-03-27T01:23:43.464Z,5.2
2019-03-27T01:24:33.399Z,5.2
2019-03-27T01:25:23.226Z,5.2
2019-03-27T01:26:13.537Z,5.3
2019-03-27T01:27:03.663Z,5.3
2019-03-27T01:27:53.444Z,5.3
2019-03-27T01:28:43.713Z,5.3
2019-03-27T01:29:33.491Z,5.2
2019-03-27T01:30:23.872Z,5.3
2019-03-27T01:31:13.900Z,5.3
2019-03-27T01:32:03.676Z,5.3
2019-03-27T01:32:54.003Z,5.3
2019-03-27T01:33:43.793Z,5.3
2019-03-27T01:34:34.188Z,5.3
2019-03-27T01:35:24.216Z,5.3
2019-03-27T01:36:13.696Z,5.3
2019-03-27T01:37:04.318Z,5.3
2019-03-27T01:37:53.541Z,5.3
2019-03-27T01:38:43.590Z,5.3
2019-03-27T01:39:34.501Z,5.3
2019-03-27T01:40:24.010Z,5.3
2019-03-27T01:41:14.391Z,5.3
2019-03-27T01:42:04.675Z,5.3
2019-03-27T01:42:54.453Z,5.3
2019-03-27T01:43:44.513Z,5.3
2019-03-27T01:44:34.863Z,5.3
2019-03-27T01:45:24.633Z,5.2
2019-03-27T01:46:14.700Z,5.2
2019-03-27T01:47:04.246Z,5.2
2019-03-27T01:47:55.087Z,5.1
2019-03-27T01:48:45.147Z,5.1
2019-03-27T01:49:35.223Z,5.1
2019-03-27T01:50:24.482Z,5.1
2019-03-27T01:51:15.350Z,5.1
2019-03-27T01:52:08.494Z,5.1
2019-03-27T01:52:54.629Z,5.1
2019-03-27T01:53:45.246Z,5.1
2019-03-27T01:54:35.580Z,5.1
2019-03-27T01:55:25.344Z,5.1
2019-03-27T01:56:15.712Z,5.1
2019-03-27T01:57:04.947Z,5.1
2019-03-27T01:57:55.272Z,5
2019-03-27T01:58:45.875Z,5
2019-03-27T01:59:35.682Z,5
2019-03-27T02:00:25.997Z,4.9
2019-03-27T02:01:15.523Z,5
2019-03-27T02:02:06.129Z,5
2019-03-27T02:02:56.179Z,5
2019-03-27T02:03:46.234Z,4.9
2019-03-27T02:04:36.297Z,4.9
2019-03-27T02:05:26.372Z,4.9
2019-03-27T02:06:16.417Z,4.9
2019-03-27T02:07:06.495Z,4.9
2019-03-27T02:07:56.542Z,4.9
2019-03-27T02:08:46.682Z,4.9
2019-03-27T02:09:36.101Z,4.9
2019-03-27T02:10:26.759Z,4.9
2019-03-27T02:11:16.791Z,4.9
2019-03-27T02:12:06.847Z,4.9
2019-03-27T02:12:56.906Z,4.9
2019-03-27T02:13:46.977Z,4.9
2019-03-27T02:14:37.030Z,4.9
2019-03-27T02:15:27.091Z,4.9
2019-03-27T02:16:16.579Z,4.9
2019-03-27T02:17:07.221Z,4.9
2019-03-27T02:17:56.987Z,4.8
2019-03-27T02:18:46.837Z,4.8
2019-03-27T02:19:36.839Z,4.8
2019-03-27T02:20:27.161Z,4.7
2019-03-27T02:21:16.961Z,4.7
2019-03-27T02:22:07.605Z,4.7
2019-03-27T02:22:57.078Z,4.7
2019-03-27T02:23:47.687Z,4.7
2019-03-27T02:24:37.748Z,4.6
2019-03-27T02:25:27.246Z,4.6
2019-03-27T02:26:17.872Z,4.6
2019-03-27T02:27:08.024Z,4.6
2019-03-27T02:27:57.429Z,4.6
2019-03-27T02:28:47.778Z,4.6
2019-03-27T02:29:37.845Z,4.6
2019-03-27T02:30:28.338Z,4.6
2019-03-27T02:31:18.020Z,4.6
2019-03-27T02:32:08.083Z,4.6
2019-03-27T02:32:58.398Z,4.6
2019-03-27T02:33:48.251Z,4.6
2019-03-27T02:34:38.243Z,4.6
2019-03-27T02:35:28.298Z,4.6
2019-03-27T02:36:18.627Z,4.6
2019-03-27T02:37:08.698Z,4.6
2019-03-27T02:37:58.736Z,4.6
2019-03-27T02:38:48.926Z,4.6
2019-03-27T02:39:38.625Z,4.6
2019-03-27T02:40:28.912Z,4.6
2019-03-27T02:41:19.135Z,4.6
2019-03-27T02:42:08.538Z,4.6
2019-03-27T02:42:58.841Z,4.7
2019-03-27T02:43:49.222Z,4.6
2019-03-27T02:44:39.240Z,4.7
2019-03-27T02:45:29.327Z,4.6
2019-03-27T02:46:27.942Z,4.6
2019-03-27T02:47:09.436Z,4.6
2019-03-27T02:47:59.478Z,4.6
2019-03-27T02:48:49.555Z,4.6
2019-03-27T02:49:39.719Z,4.6
2019-03-27T02:50:29.785Z,4.6
2019-03-27T02:51:19.452Z,4.5
2019-03-27T02:52:09.787Z,4.6
2019-03-27T02:52:59.848Z,4.5
2019-03-27T02:53:49.987Z,4.5
2019-03-27T02:54:39.704Z,4.5
2019-03-27T02:55:29.734Z,4.5
2019-03-27T02:56:20.122Z,4.4
2019-03-27T02:57:09.559Z,4.4
2019-03-27T02:57:59.362Z,4.4
2019-03-27T02:58:50.268Z,4.4
2019-03-27T02:59:40.305Z,4.4
2019-03-27T03:00:30.359Z,4.4
2019-03-27T03:01:19.901Z,4.4
2019-03-27T03:02:10.351Z,4.4
2019-03-27T03:02:59.744Z,4.3
2019-03-27T03:03:50.380Z,4.3
2019-03-27T03:07:20.862Z,4.3
2019-03-27T03:08:11.474Z,4.3
2019-03-27T03:09:01.310Z,4.3
2019-03-27T03:09:51.707Z,4.3
2019-03-27T03:10:46.219Z,4.3
2019-03-27T03:11:31.714Z,4.2
2019-03-27T03:12:21.877Z,4.3
2019-03-27T03:13:11.808Z,4.3
2019-03-27T03:14:01.596Z,4.2
2019-03-27T03:14:51.391Z,4.2
2019-03-27T03:15:42.013Z,4.2
2019-03-27T03:16:45.681Z,4.1
2019-03-27T03:17:21.830Z,4.1
2019-03-27T03:18:12.203Z,4.1
2019-03-27T03:19:02.258Z,4.1
2019-03-27T03:19:52.273Z,4.1
2019-03-27T03:20:42.075Z,4
2019-03-27T03:21:31.871Z,3.9
2019-03-27T03:22:22.296Z,3.9
2019-03-27T03:23:12.523Z,3.9
2019-03-27T03:24:02.503Z,3.9
2019-03-27T03:24:52.634Z,3.9
2019-03-27T03:25:42.735Z,3.9
2019-03-27T03:26:32.769Z,3.9
2019-03-27T03:27:22.851Z,3.9
2019-03-27T03:28:13.001Z,3.9
2019-03-27T03:29:02.426Z,3.9
2019-03-27T03:29:53.117Z,3.9
2019-03-27T03:30:42.923Z,3.8
2019-03-27T03:31:33.303Z,3.8
2019-03-27T03:32:23.273Z,3.8
2019-03-27T03:33:13.089Z,3.7
2019-03-27T03:34:03.644Z,3.7
2019-03-27T03:34:53.552Z,3.7
2019-03-27T03:35:43.190Z,3.7
2019-03-27T03:36:33.357Z,3.8
2019-03-27T03:37:23.580Z,3.8
2019-03-27T03:38:13.420Z,3.8
2019-03-27T03:39:03.652Z,3.8
2019-03-27T03:39:53.498Z,3.8
2019-03-27T03:40:43.817Z,3.8
2019-03-27T03:41:33.839Z,3.8
2019-03-27T03:42:23.371Z,3.8
2019-03-27T03:43:13.709Z,3.8
2019-03-27T03:44:03.808Z,3.8
2019-03-27T03:44:54.117Z,3.7
2019-03-27T03:45:43.882Z,3.6
2019-03-27T03:46:33.664Z,3.6
2019-03-27T03:47:24.285Z,3.6
2019-03-27T03:48:14.092Z,3.6
2019-03-27T03:49:04.152Z,3.6
2019-03-27T03:49:54.638Z,3.6
2019-03-27T03:50:44.806Z,3.6
2019-03-27T03:51:34.579Z,3.6
2019-03-27T03:52:24.372Z,3.6
2019-03-27T03:53:14.814Z,3.5
2019-03-27T03:54:04.522Z,3.5
2019-03-27T03:54:54.920Z,3.5
2019-03-27T03:55:44.925Z,3.4
2019-03-27T03:56:34.944Z,3.4
2019-03-27T03:57:24.998Z,3.4
2019-03-27T03:58:15.276Z,3.4
2019-03-27T03:59:05.131Z,3.3
2019-03-27T03:59:55.229Z,3.3
2019-03-27T04:00:45.002Z,3.3
2019-03-27T04:01:35.312Z,3.3
2019-03-27T04:02:24.999Z,3.3
2019-03-27T04:03:15.139Z,3.3
2019-03-27T04:04:05.265Z,3.3
2019-03-27T04:04:55.553Z,3.2
2019-03-27T04:05:45.608Z,3.1
2019-03-27T04:06:35.409Z,3.2
2019-03-27T04:07:25.462Z,3.1
2019-03-27T04:08:15.863Z,3.1
2019-03-27T04:09:05.307Z,3.1
2019-03-27T04:09:55.654Z,3.1
2019-03-27T04:10:46.280Z,3
2019-03-27T04:11:35.555Z,3.1
2019-03-27T04:12:25.530Z,3.1
2019-03-27T04:13:16.280Z,3
2019-03-27T04:14:05.962Z,3
2019-03-27T04:14:55.998Z,3.1
2019-03-27T04:15:46.357Z,3.1
2019-03-27T04:16:36.409Z,3.1
2019-03-27T04:17:26.435Z,3.1
2019-03-27T04:18:16.537Z,3.1
2019-03-27T04:19:06.330Z,3.1
2019-03-27T04:19:56.357Z,3.1
2019-03-27T04:20:46.707Z,3.1
2019-03-27T04:21:36.785Z,3.1
2019-03-27T04:22:26.551Z,3.1
2019-03-27T04:23:16.608Z,3.2
2019-03-27T04:24:06.666Z,3.2
2019-03-27T04:24:56.975Z,3.2
2019-03-27T04:26:13.431Z,3.2
2019-03-27T04:26:36.962Z,3.2
2019-03-27T04:27:26.880Z,3.2
2019-03-27T04:28:17.242Z,3.2
2019-03-27T04:29:07.279Z,3.3
2019-03-27T04:29:57.080Z,3.3
2019-03-27T04:30:47.435Z,3.3
2019-03-27T04:31:37.454Z,3.2
2019-03-27T04:32:27.567Z,3.2
2019-03-27T04:33:17.351Z,3.2
2019-03-27T04:34:07.368Z,3.3
2019-03-27T04:34:57.442Z,3.2
2019-03-27T04:35:47.762Z,3.3
2019-03-27T04:36:37.838Z,3.2
2019-03-27T04:37:27.629Z,3.2
2019-03-27T04:38:17.698Z,3.2
2019-03-27T04:39:08.017Z,3.2
2019-03-27T04:39:58.041Z,3.3
2019-03-27T04:40:47.850Z,3.2
2019-03-27T04:41:37.390Z,3.3
2019-03-27T04:42:28.286Z,3.3
2019-03-27T04:43:18.319Z,3.2
2019-03-27T04:44:08.366Z,3.2
2019-03-27T04:44:58.421Z,3.2
2019-03-27T04:45:48.472Z,3.2
2019-03-27T04:46:38.534Z,3.2
2019-03-27T04:47:35.262Z,3.3
2019-03-27T04:48:18.129Z,3.3
2019-03-27T04:49:10.826Z,3.3
2019-03-27T04:49:58.230Z,3.3
2019-03-27T04:50:48.855Z,3.3
2019-03-27T04:51:38.405Z,3.4
2019-03-27T04:52:28.665Z,3.4
2019-03-27T04:53:18.735Z,3.4
2019-03-27T04:54:09.065Z,3.4
2019-03-27T04:54:59.129Z,3.4
2019-03-27T04:55:48.909Z,3.4
2019-03-27T04:56:39.252Z,3.5
2019-03-27T04:57:29.045Z,3.5
2019-03-27T04:58:19.475Z,3.5
2019-03-27T04:59:09.490Z,3.5
2019-03-27T04:59:58.642Z,3.5
2019-03-27T05:00:49.312Z,3.4
2019-03-27T05:01:39.403Z,3.5
2019-03-27T05:02:29.681Z,3.5
2019-03-27T05:03:19.738Z,3.5
2019-03-27T05:04:09.821Z,3.5
2019-03-27T05:04:59.575Z,3.6
2019-03-27T05:05:49.652Z,3.5
2019-03-27T05:06:39.687Z,3.5
2019-03-27T05:07:30.023Z,3.6
2019-03-27T05:08:19.630Z,3.6
2019-03-27T05:09:10.149Z,3.6
2019-03-27T05:09:59.949Z,3.6
2019-03-27T05:10:49.712Z,3.6
2019-03-27T05:11:40.078Z,3.8
2019-03-27T05:12:30.483Z,3.8
2019-03-27T05:13:20.182Z,3.8
2019-03-27T05:14:10.521Z,3.8
2019-03-27T05:15:00.501Z,3.9
2019-03-27T05:15:50.709Z,3.9
2019-03-27T05:16:40.134Z,3.9
2019-03-27T05:17:29.926Z,4
2019-03-27T05:18:20.798Z,4.1
2019-03-27T05:19:10.601Z,4.1
2019-03-27T05:20:00.874Z,4.2
2019-03-27T05:20:50.473Z,4.3
2019-03-27T05:21:41.041Z,4.3
2019-03-27T05:22:30.861Z,4.4
2019-03-27T05:23:21.248Z,4.3
2019-03-27T05:24:10.966Z,4.3
2019-03-27T05:25:01.089Z,4.4
2019-03-27T05:25:51.071Z,4.4
2019-03-27T05:26:41.401Z,4.4
2019-03-27T05:27:31.460Z,4.4
2019-03-27T05:28:21.523Z,4.4
2019-03-27T05:29:11.308Z,4.5
2019-03-27T05:30:01.195Z,4.5
2019-03-27T05:30:51.739Z,4.6
2019-03-27T05:31:41.780Z,4.6
2019-03-27T05:32:31.555Z,4.6
2019-03-27T05:33:21.893Z,4.7
2019-03-27T05:34:11.670Z,4.9
2019-03-27T05:35:01.912Z,4.8
2019-03-27T05:35:52.123Z,4.8
2019-03-27T05:36:42.159Z,4.8
2019-03-27T05:37:32.192Z,4.9
2019-03-27T05:38:21.695Z,5
2019-03-27T05:39:15.922Z,4.8
2019-03-27T05:40:02.210Z,4.9
2019-03-27T05:40:52.416Z,5
2019-03-27T05:41:42.492Z,5
2019-03-27T05:42:32.544Z,5.3
2019-03-27T05:43:22.617Z,5.2
2019-03-27T05:44:12.681Z,5.2
2019-03-27T05:45:02.663Z,5.3
2019-03-27T05:45:52.522Z,5.3
2019-03-27T05:46:42.904Z,5.2
2019-03-27T05:47:32.909Z,5.2
2019-03-27T05:48:22.967Z,5.1
2019-03-27T05:49:12.774Z,5.1
2019-03-27T05:50:03.099Z,5.1
2019-03-27T05:50:53.178Z,5.3
2019-03-27T05:51:43.300Z,5.3
2019-03-27T05:52:32.994Z,5.4
2019-03-27T05:53:23.342Z,5.5
2019-03-27T05:54:13.122Z,5.6
2019-03-27T05:55:02.917Z,5.6
2019-03-27T05:55:52.958Z,5.5
2019-03-27T05:56:43.576Z,5.4
2019-03-27T05:57:33.636Z,5.3
2019-03-27T05:58:23.696Z,5.4
2019-03-27T05:59:13.748Z,5.4
2019-03-27T06:00:03.858Z,5.6
2019-03-27T06:00:53.602Z,5.6
2019-03-27T06:01:43.652Z,5.5
2019-03-27T06:02:34.006Z,5.6
2019-03-27T06:03:23.776Z,5.5
2019-03-27T06:05:20.961Z,5.8
2019-03-27T06:06:11.326Z,5.9
2019-03-27T06:07:01.091Z,5.8
2019-03-27T06:07:51.421Z,5.8
2019-03-27T06:08:40.663Z,5.8
2019-03-27T06:09:31.363Z,5.9
2019-03-27T06:10:21.051Z,6
2019-03-27T06:11:11.683Z,6.1
2019-03-27T06:12:01.734Z,6
2019-03-27T06:12:51.793Z,5.9
2019-03-27T06:13:41.922Z,5.9
2019-03-27T06:14:31.633Z,6
2019-03-27T06:15:21.400Z,6
2019-03-27T06:17:01.862Z,6.1
2019-03-27T06:17:52.203Z,6.1
2019-03-27T06:18:41.944Z,6.2
2019-03-27T06:19:32.241Z,6.3
2019-03-27T06:20:22.330Z,6.3
2019-03-27T06:21:12.095Z,6.2
2019-03-27T06:22:02.443Z,6.3
2019-03-27T06:22:51.678Z,6.4
2019-03-27T06:23:42.565Z,6.3
2019-03-27T06:24:32.345Z,6.3
2019-03-27T06:25:22.486Z,6.4
2019-03-27T06:26:12.483Z,6.4
2019-03-27T06:27:02.520Z,6.4
2019-03-27T06:27:52.399Z,6.5
2019-03-27T06:28:42.932Z,6.6
2019-03-27T06:29:32.437Z,6.5
2019-03-27T06:30:23.059Z,6.8
2019-03-27T06:31:12.832Z,6.9
2019-03-27T06:32:02.922Z,6.9
2019-03-27T06:32:52.947Z,6.9
2019-03-27T06:33:43.003Z,6.9
2019-03-27T06:34:47.749Z,7
2019-03-27T06:35:22.887Z,7.1
2019-03-27T06:36:12.927Z,7.1
2019-03-27T06:37:02.956Z,7.1
2019-03-27T06:37:53.269Z,7.3
2019-03-27T06:38:43.359Z,7.6
2019-03-27T06:39:33.697Z,7.7
2019-03-27T06:40:23.766Z,7.4
2019-03-27T06:41:13.869Z,7.4
2019-03-27T06:42:03.343Z,7.3
2019-03-27T06:42:53.972Z,7.4
2019-03-27T06:43:44.001Z,7.7
2019-03-27T06:44:33.760Z,7.7
2019-03-27T06:45:24.112Z,7.5
2019-03-27T06:46:13.628Z,7.4
2019-03-27T06:47:04.221Z,7.3
2019-03-27T06:47:54.021Z,7.4
2019-03-27T06:48:44.345Z,7.6
2019-03-27T06:49:34.411Z,7.6
2019-03-27T06:50:24.473Z,7.8
2019-03-27T06:51:14.526Z,8
2019-03-27T06:52:04.308Z,8.4
2019-03-27T06:52:54.371Z,8.4
2019-03-27T06:53:44.706Z,8.4
2019-03-27T06:54:34.507Z,8.3
2019-03-27T06:55:24.831Z,8.1
2019-03-27T06:56:13.799Z,8.3
2019-03-27T06:57:05.049Z,8.6
2019-03-27T06:57:55.259Z,8.5
2019-03-27T06:58:57.611Z,8.8
2019-03-27T06:59:35.128Z,8.9
2019-03-27T07:00:24.910Z,8.6
2019-03-27T07:01:15.248Z,8.8
2019-03-27T07:02:05.419Z,8.9
2019-03-27T07:02:55.363Z,9.1
2019-03-27T07:05:36.055Z,9.4
2019-03-27T07:07:14.161Z,9.4
2019-03-27T07:08:03.465Z,9.3
2019-03-27T07:08:54.537Z,9.2
2019-03-27T07:09:45.125Z,9.2
2019-03-27T07:10:34.138Z,9.1
2019-03-27T07:11:23.907Z,9.3
2019-03-27T07:12:23.730Z,9.3
2019-03-27T07:13:04.118Z,9.1
2019-03-27T07:13:54.640Z,9.1
2019-03-27T07:14:44.440Z,9.8
2019-03-27T07:15:37.847Z,9.8
2019-03-27T07:16:24.270Z,10.1
2019-03-27T07:17:14.611Z,9.7
2019-03-27T07:18:04.955Z,9.6
2019-03-27T07:18:54.987Z,9.6
2019-03-27T07:19:59.710Z,9.8
2019-03-27T07:20:34.842Z,9.8
2019-03-27T07:21:25.420Z,9.6
2019-03-27T07:22:15.185Z,9.6
2019-03-27T07:23:05.045Z,9.9
2019-03-27T07:23:55.359Z,10.1
2019-03-27T07:24:44.900Z,10
2019-03-27T07:25:35.210Z,10.1
2019-03-27T07:26:25.260Z,10.2
2019-03-27T07:27:15.595Z,9.8
2019-03-27T07:28:05.684Z,10.1
2019-03-27T07:28:55.163Z,10.2
2019-03-27T07:29:45.257Z,10.6
2019-03-27T07:30:35.857Z,10.9
2019-03-27T07:31:25.949Z,10.6
2019-03-27T07:32:15.706Z,10.8
2019-03-27T07:33:05.775Z,10.7
2019-03-27T07:33:55.867Z,10.7
2019-03-27T07:34:45.869Z,10.4
2019-03-27T07:35:35.934Z,10.1
2019-03-27T07:36:25.791Z,10
2019-03-27T07:37:16.051Z,9.9
2019-03-27T07:38:05.569Z,9.8
2019-03-27T07:39:10.184Z,10.1
2019-03-27T07:39:46.726Z,10.1
2019-03-27T07:40:36.581Z,10.1
2019-03-27T07:41:26.648Z,9.8
2019-03-27T07:42:16.414Z,9.6
2019-03-27T07:43:06.761Z,9.8
2019-03-27T07:43:56.248Z,9.8
2019-03-27T07:44:46.868Z,9.9
2019-03-27T07:45:36.918Z,10
2019-03-27T07:46:27.008Z,9.9
2019-03-27T07:47:16.766Z,9.7
2019-03-27T07:48:07.113Z,9.9
2019-03-27T07:48:57.228Z,10.4
2019-03-27T07:49:47.233Z,10.8
2019-03-27T07:50:37.028Z,10.9
2019-03-27T07:51:27.075Z,10.4
2019-03-27T07:52:17.455Z,10.1
2019-03-27T07:53:07.202Z,10.4
2019-03-27T07:53:57.520Z,10.4
2019-03-27T07:54:47.680Z,10.6
2019-03-27T07:55:37.741Z,10.4
2019-03-27T07:56:27.743Z,10.1
2019-03-27T07:57:17.512Z,9.8
2019-03-27T07:58:07.830Z,10.3
2019-03-27T07:59:01.232Z,10.9
2019-03-27T07:59:47.691Z,11.1
2019-03-27T08:00:38.092Z,11.3
2019-03-27T08:01:28.063Z,11.2
2019-03-27T08:02:18.119Z,11.3
2019-03-27T08:03:08.198Z,11.3
2019-03-27T08:03:58.244Z,11.2
2019-03-27T08:04:47.206Z,10.6
2019-03-27T08:05:38.099Z,10.1
2019-03-27T08:06:28.418Z,9.6
2019-03-27T08:07:29.786Z,9.6
2019-03-27T08:08:08.290Z,10.4
2019-03-27T08:08:58.340Z,10.8
2019-03-27T08:09:48.746Z,11
2019-03-27T08:10:38.168Z,10.8
2019-03-27T08:11:29.685Z,10.6
2019-03-27T08:12:18.883Z,10.9
2019-03-27T08:13:08.693Z,11
2019-03-27T08:13:58.968Z,11.3
2019-03-27T08:14:49.113Z,11.6
2019-03-27T08:15:42.685Z,11.4
2019-03-27T08:16:28.878Z,11.2
2019-03-27T08:17:18.671Z,11.3
2019-03-27T08:18:08.250Z,10.9
2019-03-27T08:19:10.742Z,10.9
2019-03-27T08:19:49.130Z,10.1
2019-03-27T08:20:39.180Z,9.8
2019-03-27T08:21:33.069Z,9.7
2019-03-27T08:22:19.309Z,9.7
2019-03-27T08:23:09.365Z,9.9
2019-03-27T08:23:59.706Z,9.8
2019-03-27T08:24:49.210Z,10.1
2019-03-27T08:25:39.328Z,10.1
2019-03-27T08:26:29.875Z,10.1
2019-03-27T08:27:19.942Z,10.1
2019-03-27T08:28:09.534Z,10.7
2019-03-27T08:29:00.085Z,10.8
2019-03-27T08:29:49.854Z,10.5
2019-03-27T08:30:40.194Z,10.7
2019-03-27T08:31:29.961Z,10.9
2019-03-27T08:32:20.332Z,10.9
2019-03-27T08:33:10.372Z,11
2019-03-27T08:34:00.654Z,10.9
2019-03-27T08:34:50.224Z,10.8
2019-03-27T08:35:40.537Z,10.4
2019-03-27T08:36:30.625Z,10.3
2019-03-27T08:37:20.668Z,10.2
2019-03-27T08:38:10.458Z,10.4
2019-03-27T08:39:00.506Z,10.4
2019-03-27T08:39:50.649Z,10.8
2019-03-27T08:40:40.439Z,10.8
2019-03-27T08:41:30.968Z,10.8
2019-03-27T08:42:20.202Z,11.4
2019-03-27T08:43:27.766Z,11.2
2019-03-27T08:44:00.433Z,11.3
2019-03-27T08:44:51.266Z,11.3
2019-03-27T08:45:41.272Z,11.1
2019-03-27T08:46:31.420Z,11
2019-03-27T08:47:21.111Z,11.3
2019-03-27T08:48:10.902Z,11
2019-03-27T08:49:01.245Z,10.9
2019-03-27T08:50:06.220Z,10.4
2019-03-27T08:50:41.347Z,10.7
2019-03-27T08:51:31.697Z,10.8
2019-03-27T08:52:21.754Z,10.6
2019-03-27T08:53:11.819Z,10.3
2019-03-27T08:54:01.879Z,10.8
2019-03-27T08:54:51.972Z,10.4
2019-03-27T08:55:41.999Z,10.3
2019-03-27T08:56:31.784Z,10.1
2019-03-27T08:57:22.163Z,9.8
2019-03-27T08:58:12.182Z,9.5
2019-03-27T08:59:01.980Z,9.4
2019-03-27T08:59:51.997Z,9.3
2019-03-27T09:00:42.343Z,9.4
2019-03-27T09:01:32.206Z,10
2019-03-27T09:02:22.544Z,10.2
2019-03-27T09:03:12.244Z,10.1
2019-03-27T09:04:02.603Z,10
2019-03-27T09:04:52.716Z,9.9
2019-03-27T09:05:42.431Z,10
2019-03-27T09:06:37.091Z,9.9
2019-03-27T09:07:22.591Z,10.4
2019-03-27T09:08:12.701Z,10.8
2019-03-27T09:09:17.350Z,10.9
2019-03-27T09:09:52.744Z,10.5
2019-03-27T09:10:43.075Z,10.4
2019-03-27T09:11:32.362Z,10.4
2019-03-27T09:12:22.925Z,10.4
2019-03-27T09:13:13.257Z,10.8
2019-03-27T09:14:03.319Z,11.1
2019-03-27T09:14:53.371Z,10.8
2019-03-27T09:15:43.163Z,10.8
2019-03-27T09:16:33.234Z,11.3
2019-03-27T09:17:23.267Z,11.8
2019-03-27T09:18:16.971Z,11.8
2019-03-27T09:19:03.673Z,11.2
2019-03-27T09:19:53.805Z,10.9
2019-03-27T09:20:43.513Z,10.6
2019-03-27T09:21:33.865Z,10.5
2019-03-27T09:22:23.960Z,11
2019-03-27T09:23:13.981Z,11.3
2019-03-27T09:24:04.090Z,11.1
2019-03-27T09:24:53.563Z,11.7
2019-03-27T09:25:43.875Z,11.8
2019-03-27T09:26:34.208Z,12
2019-03-27T09:27:23.982Z,11.8
2019-03-27T09:28:14.392Z,11.3
2019-03-27T09:29:04.398Z,11.7
2019-03-27T09:29:54.450Z,12.1
2019-03-27T09:30:44.958Z,12.3
2019-03-27T09:31:47.945Z,12.4
2019-03-27T09:32:24.350Z,11.9
2019-03-27T09:33:14.715Z,12.1
2019-03-27T09:34:04.217Z,12.1
2019-03-27T09:34:54.257Z,12.1
2019-03-27T09:35:44.959Z,11.9
2019-03-27T09:36:34.742Z,11.9
2019-03-27T09:37:24.982Z,12.3
2019-03-27T09:38:15.281Z,12.2
2019-03-27T09:39:05.122Z,12.4
2019-03-27T09:39:54.914Z,12.2
2019-03-27T09:40:44.669Z,12.6
2019-03-27T09:41:35.302Z,12.5
2019-03-27T09:42:25.128Z,12.4
2019-03-27T09:43:14.589Z,12.3
2019-03-27T09:44:05.476Z,12.6
2019-03-27T09:44:55.751Z,12.6
2019-03-27T09:45:45.589Z,12.6
2019-03-27T09:46:35.120Z,12.6
2019-03-27T09:47:25.726Z,12.3
2019-03-27T09:48:15.770Z,12.1
2019-03-27T09:49:05.834Z,11.8
2019-03-27T09:49:55.626Z,12.1
2019-03-27T09:50:45.676Z,12
2019-03-27T09:51:35.739Z,12.3
2019-03-27T09:52:25.841Z,11.9
2019-03-27T09:53:16.143Z,12
2019-03-27T09:54:06.209Z,11.7
2019-03-27T09:54:55.973Z,11.8
2019-03-27T09:55:45.763Z,12.3
2019-03-27T09:56:36.375Z,12.3
2019-03-27T09:57:26.168Z,12.1
2019-03-27T09:58:16.509Z,12.4
2019-03-27T09:59:09.009Z,12.8
2019-03-27T09:59:55.560Z,13.4
2019-03-27T10:00:46.719Z,13.3
2019-03-27T10:01:36.542Z,12.4
2019-03-27T10:02:26.515Z,12.1
2019-03-27T10:03:16.593Z,12.2
2019-03-27T10:04:06.902Z,12.9
2019-03-27T10:06:21.101Z,13.1
2019-03-27T10:07:11.035Z,13.8
2019-03-27T10:08:00.896Z,13.6
2019-03-27T10:08:51.235Z,13.3
2019-03-27T10:09:41.323Z,13.1
2019-03-27T10:10:31.365Z,13.8
2019-03-27T10:11:24.808Z,14.1
2019-03-27T10:12:11.467Z,14.7
2019-03-27T10:13:01.520Z,14.7
2019-03-27T10:13:51.030Z,14.8
2019-03-27T10:14:41.632Z,14.8
2019-03-27T10:15:31.213Z,14.9
2019-03-27T10:16:21.925Z,14.2
2019-03-27T10:17:11.572Z,14.1
2019-03-27T10:18:01.322Z,14.3
2019-03-27T10:18:51.987Z,14.3
2019-03-27T10:19:41.193Z,13.7
2019-03-27T10:20:32.072Z,14.4
2019-03-27T10:21:21.592Z,14.8
2019-03-27T10:22:11.905Z,14.6
2019-03-27T10:23:02.345Z,14.8
2019-03-27T10:23:52.032Z,15.2
2019-03-27T10:24:41.887Z,14.8
2019-03-27T10:25:32.412Z,14.1
2019-03-27T10:26:22.214Z,14
2019-03-27T10:27:12.544Z,14.6
2019-03-27T10:28:02.394Z,14.9
2019-03-27T10:28:52.393Z,14.9
2019-03-27T10:29:42.713Z,14.9
2019-03-27T10:30:31.971Z,14
2019-03-27T10:31:22.831Z,13.4
2019-03-27T10:32:12.907Z,13.1
2019-03-27T10:33:02.694Z,13.3
2019-03-27T10:33:53.113Z,12.7
2019-03-27T10:34:42.801Z,13.1
2019-03-27T10:35:32.933Z,14.4
2019-03-27T10:36:23.189Z,14.5
2019-03-27T10:37:12.974Z,14.5
2019-03-27T10:38:02.766Z,14
2019-03-27T10:38:52.826Z,13.8
2019-03-27T10:39:43.434Z,13.8
2019-03-27T10:40:33.011Z,14.3
2019-03-27T10:41:23.551Z,14.9
2019-03-27T10:42:13.341Z,14.4
2019-03-27T10:43:03.429Z,14.8
2019-03-27T10:43:53.744Z,14.8
2019-03-27T10:44:43.536Z,13.9
2019-03-27T10:45:33.881Z,14.1
2019-03-27T10:46:23.665Z,14
2019-03-27T10:47:13.703Z,14
2019-03-27T10:48:04.043Z,14.3
2019-03-27T10:48:55.927Z,13.7
2019-03-27T10:49:44.170Z,12.9
2019-03-27T10:50:34.211Z,13.6
2019-03-27T10:51:24.283Z,13.5
2019-03-27T10:52:13.793Z,13.9
2019-03-27T10:53:04.388Z,13.6
2019-03-27T10:53:54.199Z,13.5
2019-03-27T10:54:44.525Z,13.3
2019-03-27T10:55:37.163Z,13.7
2019-03-27T10:56:24.094Z,13.3
2019-03-27T10:57:14.732Z,13.3
2019-03-27T10:58:05.050Z,14.3
2019-03-27T10:58:54.820Z,14.3
2019-03-27T10:59:44.902Z,15.1
2019-03-27T11:00:34.938Z,14.9
2019-03-27T11:01:25.044Z,13.8
2019-03-27T11:02:15.140Z,13.4
2019-03-27T11:03:04.879Z,14.1
2019-03-27T11:03:55.262Z,13.6
2019-03-27T11:04:44.974Z,13.1
2019-03-27T11:05:35.309Z,12.9
2019-03-27T11:06:25.078Z,13.1
2019-03-27T11:07:15.164Z,12.7
2019-03-27T11:08:05.502Z,12.8
2019-03-27T11:08:55.272Z,12.9
2019-03-27T11:09:45.345Z,13.1
2019-03-27T11:10:35.394Z,12.8
2019-03-27T11:11:25.179Z,12.5
2019-03-27T11:12:15.804Z,12.5
2019-03-27T11:13:05.587Z,12.5
2019-03-27T11:13:55.617Z,13
2019-03-27T11:14:45.692Z,13.4
2019-03-27T11:15:35.742Z,13.3
2019-03-27T11:16:25.811Z,13.6
2019-03-27T11:17:15.649Z,13.5
2019-03-27T11:18:06.211Z,13.8
2019-03-27T11:18:55.694Z,13.8
2019-03-27T11:19:46.343Z,13.3
2019-03-27T11:20:35.622Z,13.8
2019-03-27T11:21:26.454Z,13.7
2019-03-27T11:22:16.503Z,13.6
2019-03-27T11:23:06.578Z,13.9
2019-03-27T11:23:56.086Z,14.3
2019-03-27T11:24:46.680Z,14.8
2019-03-27T11:25:36.818Z,14.9
2019-03-27T11:26:26.555Z,14.4
2019-03-27T11:27:16.867Z,14.3
2019-03-27T11:28:06.386Z,14.2
2019-03-27T11:28:56.988Z,14.4
2019-03-27T11:29:46.591Z,13.4
2019-03-27T11:30:37.148Z,13.8
2019-03-27T11:31:27.273Z,13.4
2019-03-27T11:32:16.951Z,13.3